createdAt,value
2023-11-11T00:01:19.280Z,0.50
2023-11-11T00:03:46.068Z,1.10
2023-11-11T00:06:12.700Z,4.05
2023-11-11T00:08:39.121Z,0.45
2023-11-11T00:11:05.674Z,0.38
2023-11-11T00:13:32.359Z,0.90
2023-11-11T00:15:59.080Z,0.65
2023-11-11T00:18:25.869Z,2.97
2023-11-11T00:20:52.407Z,0.57
2023-11-11T00:23:19.147Z,0.68
2023-11-11T00:25:45.585Z,1.75
2023-11-11T00:28:12.328Z,0.30
2023-11-11T00:30:41.498Z,0.50
2023-11-11T00:33:08.823Z,0.57
2023-11-11T00:35:35.507Z,0.60
2023-11-11T00:38:03.817Z,1.65
2023-11-11T00:40:30.586Z,0.40
2023-11-11T00:42:57.024Z,3.72
2023-11-11T00:45:23.847Z,0.32
2023-11-11T00:47:50.602Z,0.68
2023-11-11T00:50:17.418Z,0.30
2023-11-11T00:52:44.924Z,0.30
2023-11-11T00:55:11.432Z,0.32
2023-11-11T00:57:38.174Z,0.63
2023-11-11T01:00:05.377Z,0.20
2023-11-11T01:02:32.222Z,0.40
2023-11-11T01:04:58.660Z,0.47
2023-11-11T01:07:25.154Z,0.10
2023-11-11T01:09:51.935Z,0.22
2023-11-11T01:12:18.441Z,0.20
2023-11-11T01:14:44.937Z,0.25
2023-11-11T01:17:11.612Z,0.20
2023-11-11T01:19:38.122Z,0.15
2023-11-11T01:22:04.629Z,0.13
2023-11-11T01:24:31.150Z,0.22
2023-11-11T01:26:57.864Z,1.00
2023-11-11T01:29:24.266Z,0.20
2023-11-11T01:31:51.083Z,1.15
2023-11-11T01:34:17.582Z,0.10
2023-11-11T01:36:44.352Z,0.20
2023-11-11T01:39:10.839Z,0.20
2023-11-11T01:41:37.314Z,0.17
2023-11-11T01:44:03.823Z,0.15
2023-11-11T01:46:30.569Z,0.20
2023-11-11T01:48:57.269Z,0.35
2023-11-11T01:51:24.067Z,0.22
2023-11-11T01:53:50.691Z,0.20
2023-11-11T01:56:17.557Z,0.10
2023-11-11T01:58:44.610Z,0.25
2023-11-11T02:01:11.432Z,0.20
2023-11-11T02:03:39.763Z,0.35
2023-11-11T02:06:09.750Z,0.63
2023-11-11T02:08:37.110Z,0.20
2023-11-11T02:11:04.293Z,0.20
2023-11-11T02:13:30.790Z,0.20
2023-11-11T02:15:57.805Z,1.08
2023-11-11T02:18:24.328Z,0.17
2023-11-11T02:20:51.073Z,0.13
2023-11-11T02:23:17.492Z,0.25
2023-11-11T02:25:47.063Z,0.17
2023-11-11T02:28:13.631Z,0.38
2023-11-11T02:30:42.873Z,0.30
2023-11-11T02:33:11.884Z,0.57
2023-11-11T02:35:38.424Z,1.08
2023-11-11T02:38:04.844Z,0.20
2023-11-11T02:40:31.342Z,0.10
2023-11-11T02:43:01.117Z,0.25
2023-11-11T02:45:27.573Z,0.70
2023-11-11T02:47:54.118Z,0.10
2023-11-11T02:50:24.115Z,0.20
2023-11-11T02:52:51.480Z,0.20
2023-11-11T02:55:17.998Z,0.40
2023-11-11T02:57:44.757Z,0.10
2023-11-11T03:00:12.176Z,0.15
2023-11-11T03:02:39.510Z,0.30
2023-11-11T03:05:07.187Z,1.00
2023-11-11T03:07:33.772Z,0.20
2023-11-11T03:10:03.132Z,0.20
2023-11-11T03:12:31.354Z,0.20
2023-11-11T03:14:57.865Z,0.28
2023-11-11T03:17:24.642Z,0.38
2023-11-11T03:19:52.041Z,0.82
2023-11-11T03:22:18.635Z,0.20
2023-11-11T03:24:45.336Z,0.10
2023-11-11T03:27:11.875Z,0.50
2023-11-11T03:29:38.369Z,1.65
2023-11-11T03:32:05.198Z,0.60
2023-11-11T03:34:31.616Z,1.60
2023-11-11T03:36:58.062Z,0.45
2023-11-11T03:39:24.708Z,0.10
2023-11-11T03:41:51.581Z,0.35
2023-11-11T03:44:18.096Z,0.20
2023-11-11T03:46:44.805Z,0.30
2023-11-11T03:49:11.297Z,0.30
2023-11-11T03:51:37.752Z,0.60
2023-11-11T03:54:04.494Z,0.35
2023-11-11T03:56:31.199Z,3.40
2023-11-11T03:58:57.676Z,0.20
2023-11-11T04:01:27.260Z,0.40
2023-11-11T04:03:54.019Z,0.25
2023-11-11T04:06:20.482Z,0.30
2023-11-11T04:08:47.095Z,0.35
2023-11-11T04:11:13.503Z,0.30
2023-11-11T04:13:41.392Z,0.22
2023-11-11T04:16:08.998Z,0.47
2023-11-11T04:18:35.499Z,0.43
2023-11-11T04:21:02.201Z,0.32
2023-11-11T04:23:28.920Z,0.30
2023-11-11T04:25:59.600Z,0.28
2023-11-11T04:28:27.927Z,0.28
2023-11-11T04:30:54.560Z,0.57
2023-11-11T04:33:21.288Z,1.42
2023-11-11T04:35:47.846Z,0.60
2023-11-11T04:38:14.353Z,0.30
2023-11-11T04:40:41.081Z,0.28
2023-11-11T04:43:07.802Z,0.30
2023-11-11T04:45:34.605Z,0.22
2023-11-11T04:48:01.151Z,0.30
2023-11-11T04:50:28.660Z,1.63
2023-11-11T04:52:55.286Z,0.30
2023-11-11T04:55:22.050Z,0.47
2023-11-11T04:57:50.834Z,0.55
2023-11-11T05:00:17.911Z,0.52
2023-11-11T05:02:44.419Z,0.45
2023-11-11T05:05:11.183Z,0.55
2023-11-11T05:07:41.548Z,0.68
2023-11-11T05:10:09.616Z,0.45
2023-11-11T05:12:36.738Z,1.55
2023-11-11T05:15:06.966Z,0.70
2023-11-11T05:17:33.650Z,0.85
2023-11-11T05:20:00.431Z,0.52
2023-11-11T05:22:26.923Z,0.60
2023-11-11T05:24:59.207Z,0.43
2023-11-11T05:27:28.681Z,0.50
2023-11-11T05:29:55.797Z,1.17
2023-11-11T05:32:23.041Z,0.73
2023-11-11T05:34:49.567Z,0.65
2023-11-11T05:37:16.265Z,0.70
2023-11-11T05:39:45.717Z,3.03
2023-11-11T05:42:13.438Z,0.52
2023-11-11T05:44:40.637Z,0.95
2023-11-11T05:47:10.596Z,0.70
2023-11-11T05:49:37.331Z,0.80
2023-11-11T05:52:04.023Z,0.70
2023-11-11T05:54:30.735Z,0.43
2023-11-11T05:56:57.179Z,0.70
2023-11-11T05:59:23.703Z,0.55
2023-11-11T06:01:50.507Z,1.92
2023-11-11T06:04:20.480Z,1.27
2023-11-11T06:06:47.523Z,0.38
2023-11-11T06:09:15.384Z,0.60
2023-11-11T06:11:43.241Z,0.57
2023-11-11T06:14:10.106Z,2.05
2023-11-11T06:16:36.534Z,0.70
2023-11-11T06:19:05.598Z,0.57
2023-11-11T06:21:32.140Z,1.17
2023-11-11T06:23:58.692Z,0.90
2023-11-11T06:26:25.192Z,0.70
2023-11-11T06:28:54.605Z,0.68
2023-11-11T06:31:21.183Z,0.80
2023-11-11T06:33:47.977Z,5.32
2023-11-11T06:36:16.287Z,0.80
2023-11-11T06:38:43.236Z,0.80
2023-11-11T06:41:10.086Z,1.05
2023-11-11T06:43:37.125Z,1.00
2023-11-11T06:46:04.023Z,1.38
2023-11-11T06:48:30.540Z,0.57
2023-11-11T06:50:57.332Z,2.38
2023-11-11T06:53:25.088Z,1.48
2023-11-11T06:55:54.661Z,0.95
2023-11-11T06:58:21.253Z,1.33
2023-11-11T07:00:47.901Z,0.73
2023-11-11T07:03:14.612Z,1.17
2023-11-11T07:05:42.092Z,1.73
2023-11-11T07:08:08.616Z,2.42
2023-11-11T07:10:35.369Z,1.48
2023-11-11T07:13:03.818Z,0.75
2023-11-11T07:15:30.451Z,0.90
2023-11-11T07:17:57.342Z,0.55
2023-11-11T07:20:23.866Z,1.10
2023-11-11T07:22:50.381Z,0.65
2023-11-11T07:25:16.915Z,0.40
2023-11-11T07:27:44.044Z,0.30
2023-11-11T07:30:11.738Z,0.30
2023-11-11T07:32:47.287Z,0.35
2023-11-11T07:35:19.738Z,0.75
2023-11-11T07:37:46.400Z,0.40
2023-11-11T07:40:17.600Z,0.45
2023-11-11T07:42:44.191Z,0.50
2023-11-11T07:45:10.642Z,0.85
2023-11-11T07:47:37.069Z,0.70
2023-11-11T07:50:03.822Z,2.22
2023-11-11T07:52:30.351Z,0.90
2023-11-11T07:54:56.769Z,0.50
2023-11-11T07:58:36.043Z,0.75
2023-11-11T08:00:10.262Z,0.73
2023-11-11T08:02:36.822Z,1.23
2023-11-11T08:05:03.342Z,0.47
2023-11-11T08:07:29.869Z,0.63
2023-11-11T08:09:56.524Z,0.95
2023-11-11T08:12:23.056Z,0.63
2023-11-11T08:14:49.917Z,0.88
2023-11-11T08:17:16.410Z,0.77
2023-11-11T08:19:42.944Z,3.83
2023-11-11T08:22:09.481Z,1.92
2023-11-11T08:24:35.958Z,1.65
2023-11-11T08:27:02.436Z,2.05
2023-11-11T08:29:28.950Z,2.50
2023-11-11T08:31:56.286Z,1.67
2023-11-11T08:34:23.057Z,3.08
2023-11-11T08:36:53.279Z,0.80
2023-11-11T08:39:20.432Z,2.05
2023-11-11T08:41:47.177Z,2.20
2023-11-11T08:44:13.601Z,1.13
2023-11-11T08:46:42.633Z,3.13
2023-11-11T08:49:09.640Z,1.65
2023-11-11T08:51:36.994Z,1.20
2023-11-11T08:54:03.860Z,1.10
2023-11-11T08:56:30.698Z,1.25
2023-11-11T08:58:57.306Z,1.13
2023-11-11T09:01:25.724Z,0.68
2023-11-11T09:03:52.388Z,1.30
2023-11-11T09:06:19.038Z,2.20
2023-11-11T09:08:48.348Z,2.03
2023-11-11T09:11:15.825Z,2.78
2023-11-11T09:13:42.229Z,1.30
2023-11-11T09:16:13.402Z,1.05
2023-11-11T09:18:40.173Z,5.47
2023-11-11T09:21:07.351Z,0.63
2023-11-11T09:23:34.691Z,1.38
2023-11-11T09:26:01.181Z,0.45
2023-11-11T09:28:28.030Z,1.67
2023-11-11T09:30:54.534Z,1.40
2023-11-11T09:33:21.089Z,0.50
2023-11-11T09:35:47.728Z,0.60
2023-11-11T09:38:14.573Z,1.95
2023-11-11T09:40:41.422Z,2.28
2023-11-11T09:43:08.519Z,2.50
2023-11-11T09:45:35.076Z,1.55
2023-11-11T09:48:01.755Z,0.60
2023-11-11T09:50:28.464Z,1.40
2023-11-11T09:52:59.113Z,0.90
2023-11-11T09:55:26.842Z,0.63
2023-11-11T09:57:54.329Z,1.30
2023-11-11T10:00:21.350Z,0.85
2023-11-11T10:02:47.929Z,1.25
2023-11-11T10:05:14.775Z,0.75
2023-11-11T10:07:41.284Z,1.25
2023-11-11T10:10:09.504Z,0.65
2023-11-11T10:12:37.450Z,1.15
2023-11-11T10:15:04.352Z,0.80
2023-11-11T10:17:52.180Z,0.73
2023-11-11T10:20:19.228Z,0.43
2023-11-11T10:22:49.493Z,0.47
2023-11-11T10:25:18.142Z,0.93
2023-11-11T10:27:52.008Z,2.55
2023-11-11T10:30:21.661Z,1.52
2023-11-11T10:32:49.495Z,0.60
2023-11-11T10:35:20.441Z,0.73
2023-11-11T10:40:21.111Z,1.40
2023-11-11T10:42:50.120Z,1.20
2023-11-11T10:45:17.293Z,0.70
2023-11-11T10:47:44.981Z,1.10
2023-11-11T10:50:12.163Z,0.60
2023-11-11T10:52:40.493Z,1.17
2023-11-11T10:55:12.476Z,0.77
2023-11-11T10:57:40.264Z,1.10
2023-11-11T11:00:07.304Z,1.55
2023-11-11T11:02:35.701Z,1.30
2023-11-11T11:05:09.226Z,1.60
2023-11-11T11:07:42.189Z,0.55
2023-11-11T11:10:14.291Z,0.75
2023-11-11T11:12:46.925Z,1.00
2023-11-11T11:15:13.738Z,0.88
2023-11-11T11:17:44.689Z,2.47
2023-11-11T11:20:12.848Z,1.42
2023-11-11T11:22:42.200Z,1.35
2023-11-11T11:25:30.931Z,0.80
2023-11-11T11:28:12.959Z,2.55
2023-11-11T11:30:43.563Z,1.15
2023-11-11T11:33:17.809Z,8.82
2023-11-11T11:35:47.035Z,7.43
2023-11-11T11:38:13.806Z,6.18
2023-11-11T11:40:40.411Z,3.25
2023-11-11T11:43:11.739Z,5.07
2023-11-11T11:45:47.225Z,3.38
2023-11-11T11:48:14.110Z,2.65
2023-11-11T11:50:40.596Z,1.65
2023-11-11T11:53:07.153Z,2.03
2023-11-11T11:55:38.813Z,0.93
2023-11-11T11:58:05.551Z,0.52
2023-11-11T12:00:32.186Z,2.38
2023-11-11T12:03:03.167Z,1.08
2023-11-11T12:05:29.888Z,0.50
2023-11-11T12:07:56.651Z,2.65
2023-11-11T12:10:23.481Z,0.88
2023-11-11T12:12:50.065Z,1.58
2023-11-11T12:15:17.930Z,0.65
2023-11-11T12:17:45.925Z,0.57
2023-11-11T12:20:13.158Z,1.35
2023-11-11T12:22:43.292Z,1.20
2023-11-11T12:25:09.916Z,1.05
2023-11-11T12:27:39.471Z,0.50
2023-11-11T12:30:22.896Z,0.63
2023-11-11T12:33:23.786Z,0.70
2023-11-11T12:35:51.850Z,1.45
2023-11-11T12:38:25.060Z,1.05
2023-11-11T12:40:53.687Z,0.50
2023-11-11T12:43:21.665Z,0.75
2023-11-11T12:45:52.850Z,0.73
2023-11-11T12:48:19.793Z,0.52
2023-11-11T12:50:46.324Z,0.98
2023-11-11T12:53:13.096Z,0.35
2023-11-11T12:55:43.407Z,2.20
2023-11-11T12:58:26.466Z,1.65
2023-11-11T13:00:59.555Z,0.80
2023-11-11T13:03:27.721Z,2.25
2023-11-11T13:05:55.197Z,0.70
2023-11-11T13:08:23.351Z,1.17
2023-11-11T13:10:55.486Z,0.73
2023-11-11T13:13:22.325Z,0.50
2023-11-11T13:15:49.450Z,0.50
2023-11-11T13:18:25.123Z,0.93
2023-11-11T13:20:52.985Z,0.60
2023-11-11T13:23:21.573Z,0.77
2023-11-11T13:25:50.470Z,1.30
2023-11-11T13:28:18.121Z,1.20
2023-11-11T13:30:45.060Z,0.73
2023-11-11T13:33:12.069Z,1.50
2023-11-11T13:35:38.641Z,1.30
2023-11-11T13:38:05.157Z,0.73
2023-11-11T13:40:31.846Z,0.60
2023-11-11T13:42:58.315Z,2.47
2023-11-11T13:45:24.818Z,0.75
2023-11-11T13:47:51.588Z,0.70
2023-11-11T13:50:18.171Z,1.38
2023-11-11T13:52:46.385Z,0.55
2023-11-11T13:55:16.713Z,1.48
2023-11-11T13:57:44.031Z,4.25
2023-11-11T14:00:12.427Z,0.73
2023-11-11T14:02:39.972Z,0.50
2023-11-11T14:05:06.919Z,1.10
2023-11-11T14:07:33.311Z,1.08
2023-11-11T14:10:00.326Z,1.05
2023-11-11T14:12:26.790Z,0.73
2023-11-11T14:14:55.774Z,0.88
2023-11-11T14:17:27.237Z,3.95
2023-11-11T14:19:54.531Z,1.33
2023-11-11T14:22:21.005Z,2.33
2023-11-11T14:24:47.681Z,1.52
2023-11-11T14:27:14.503Z,1.13
2023-11-11T14:29:41.290Z,0.98
2023-11-11T14:32:08.322Z,0.65
2023-11-11T14:34:35.037Z,0.50
2023-11-11T14:37:01.652Z,1.65
2023-11-11T14:39:28.099Z,0.75
2023-11-11T14:41:54.559Z,0.85
2023-11-11T14:44:21.399Z,0.50
2023-11-11T14:46:47.951Z,0.60
2023-11-11T14:49:14.573Z,0.85
2023-11-11T14:51:41.111Z,3.15
2023-11-11T14:54:10.177Z,3.63
2023-11-11T14:56:36.883Z,1.48
2023-11-11T14:59:04.081Z,0.52
2023-11-11T15:01:30.723Z,1.30
2023-11-11T15:03:57.560Z,0.88
2023-11-11T15:08:55.651Z,3.25
2023-11-11T15:11:22.263Z,4.75
2023-11-11T15:13:48.633Z,1.35
2023-11-11T15:16:15.112Z,1.92
2023-11-11T15:18:43.206Z,2.60
2023-11-11T15:21:09.725Z,1.38
2023-11-11T15:23:36.853Z,0.50
2023-11-11T15:26:03.803Z,2.55
2023-11-11T15:28:30.519Z,2.67
2023-11-11T15:30:57.050Z,1.65
2023-11-11T15:33:26.488Z,2.38
2023-11-11T15:35:52.983Z,3.22
2023-11-11T15:38:21.713Z,1.83
2023-11-11T15:40:48.436Z,1.17
2023-11-11T15:43:15.835Z,1.52
2023-11-11T15:45:42.229Z,0.88
2023-11-11T15:48:08.656Z,1.00
2023-11-11T15:50:36.423Z,0.85
2023-11-11T15:53:02.936Z,1.45
2023-11-11T15:55:29.363Z,1.83
2023-11-11T15:57:59.729Z,2.28
2023-11-11T16:00:26.491Z,2.53
2023-11-11T16:02:53.171Z,4.25
2023-11-11T16:05:22.332Z,2.40
2023-11-11T16:07:48.940Z,0.82
2023-11-11T16:10:15.552Z,1.15
2023-11-11T16:12:43.626Z,1.35
2023-11-11T16:15:10.265Z,1.40
2023-11-11T16:17:37.900Z,1.02
2023-11-11T16:20:05.455Z,2.10
2023-11-11T16:22:32.094Z,1.83
2023-11-11T16:24:58.558Z,2.13
2023-11-11T16:27:25.082Z,3.65
2023-11-11T16:29:53.445Z,0.95
2023-11-11T16:32:21.926Z,3.35
2023-11-11T16:34:48.372Z,0.70
2023-11-11T16:37:14.982Z,2.88
2023-11-11T16:39:42.339Z,3.10
2023-11-11T16:42:12.274Z,0.70
2023-11-11T16:44:43.215Z,2.30
2023-11-11T16:47:11.750Z,0.77
2023-11-11T16:49:38.581Z,2.95
2023-11-11T16:52:06.006Z,0.98
2023-11-11T16:54:32.662Z,2.35
2023-11-11T16:56:59.313Z,1.27
2023-11-11T16:59:25.829Z,3.80
2023-11-11T17:01:52.439Z,1.92
2023-11-11T17:04:19.036Z,1.98
2023-11-11T17:06:45.754Z,1.30
2023-11-11T17:09:12.680Z,2.47
2023-11-11T17:11:46.138Z,4.78
2023-11-11T17:14:13.725Z,1.90
2023-11-11T17:16:40.919Z,1.20
2023-11-11T17:19:07.713Z,2.72
2023-11-11T17:21:34.693Z,2.38
2023-11-11T17:24:04.173Z,1.65
2023-11-11T17:26:31.132Z,1.43
2023-11-11T17:28:57.802Z,2.08
2023-11-11T17:31:25.523Z,1.48
2023-11-11T17:33:57.385Z,2.00
2023-11-11T17:36:25.665Z,1.98
2023-11-11T17:38:52.842Z,3.38
2023-11-11T17:41:19.258Z,1.70
2023-11-11T17:43:46.007Z,6.25
2023-11-11T17:46:20.324Z,4.38
2023-11-11T17:48:47.527Z,2.47
2023-11-11T17:51:18.304Z,3.45
2023-11-11T17:53:45.117Z,3.40
2023-11-11T17:56:26.124Z,2.45
2023-11-11T17:58:56.080Z,2.45
2023-11-11T18:01:22.889Z,5.87
2023-11-11T18:03:49.547Z,5.05
2023-11-11T18:06:16.436Z,4.55
2023-11-11T18:08:43.121Z,3.47
2023-11-11T18:11:10.589Z,4.63
2023-11-11T18:13:37.294Z,7.95
2023-11-11T18:16:04.225Z,4.32
2023-11-11T18:18:30.613Z,4.47
2023-11-11T18:20:57.096Z,3.70
2023-11-11T18:23:23.776Z,4.13
2023-11-11T18:25:50.232Z,4.57
2023-11-11T18:28:16.753Z,3.58
2023-11-11T18:30:43.382Z,6.28
2023-11-11T18:33:09.886Z,4.45
2023-11-11T18:35:36.486Z,5.18
2023-11-11T18:38:03.132Z,6.65
2023-11-11T18:40:29.783Z,2.30
2023-11-11T18:42:56.341Z,2.75
2023-11-11T18:45:23.892Z,6.50
2023-11-11T18:47:50.944Z,4.13
2023-11-11T18:50:23.163Z,3.17
2023-11-11T18:52:52.921Z,2.25
2023-11-11T18:55:19.769Z,2.83
2023-11-11T18:57:46.516Z,3.45
2023-11-11T19:00:13.658Z,2.97
2023-11-11T19:02:40.065Z,3.28
2023-11-11T19:05:07.917Z,2.22
2023-11-11T19:07:34.726Z,4.55
2023-11-11T19:10:01.625Z,5.13
2023-11-11T19:12:28.032Z,1.75
2023-11-11T19:14:54.966Z,3.90
2023-11-11T19:17:21.650Z,2.15
2023-11-11T19:19:48.039Z,2.17
2023-11-11T19:22:15.087Z,2.30
2023-11-11T19:24:42.211Z,3.25
2023-11-11T19:27:09.931Z,1.60
2023-11-11T19:29:36.306Z,1.95
2023-11-11T19:32:02.955Z,2.10
2023-11-11T19:34:29.477Z,1.90
2023-11-11T19:36:57.032Z,3.17
2023-11-11T19:39:23.537Z,2.08
2023-11-11T19:41:49.958Z,1.70
2023-11-11T19:44:18.316Z,9.85
2023-11-11T19:46:46.061Z,2.60
2023-11-11T19:49:12.695Z,3.25
2023-11-11T19:51:39.452Z,2.88
2023-11-11T19:54:05.989Z,3.28
2023-11-11T19:56:32.810Z,3.03
2023-11-11T19:58:59.564Z,2.88
2023-11-11T20:01:27.380Z,1.73
2023-11-11T20:03:53.974Z,2.65
2023-11-11T20:06:20.511Z,4.97
2023-11-11T20:08:47.299Z,3.17
2023-11-11T20:11:13.815Z,3.65
2023-11-11T20:13:40.313Z,2.78
2023-11-11T20:16:07.169Z,7.45
2023-11-11T20:18:33.676Z,4.18
2023-11-11T20:21:01.240Z,1.90
2023-11-11T20:23:27.637Z,3.17
2023-11-11T20:25:54.352Z,2.25
2023-11-11T20:28:20.735Z,2.00
2023-11-11T20:30:49.496Z,1.25
2023-11-11T20:33:16.212Z,2.65
2023-11-11T20:35:42.872Z,2.60
2023-11-11T20:38:10.823Z,3.17
2023-11-11T20:40:37.418Z,3.05
2023-11-11T20:43:03.993Z,3.35
2023-11-11T20:45:30.842Z,2.33
2023-11-11T20:47:57.351Z,1.38
2023-11-11T20:50:23.796Z,3.03
2023-11-11T20:52:51.063Z,1.55
2023-11-11T20:55:19.307Z,3.55
2023-11-11T20:57:46.518Z,2.22
2023-11-11T21:00:14.374Z,3.17
2023-11-11T21:02:42.764Z,3.38
2023-11-11T21:05:10.489Z,4.15
2023-11-11T21:07:37.497Z,3.15
2023-11-11T21:10:06.016Z,2.90
2023-11-11T21:12:33.000Z,4.47
2023-11-11T21:14:59.678Z,3.60
2023-11-11T21:17:26.217Z,3.83
2023-11-11T21:19:52.749Z,4.50
2023-11-11T21:22:19.311Z,3.05
2023-11-11T21:24:45.740Z,3.58
2023-11-11T21:27:12.067Z,3.22
2023-11-11T21:29:38.527Z,3.83
2023-11-11T21:32:05.914Z,2.75
2023-11-11T21:34:32.874Z,3.90
2023-11-11T21:36:59.451Z,4.03
2023-11-11T21:39:26.086Z,4.18
2023-11-11T21:41:53.488Z,3.22
2023-11-11T21:44:19.978Z,4.63
2023-11-11T21:46:46.635Z,4.65
2023-11-11T21:49:13.171Z,4.85
2023-11-11T21:51:40.154Z,4.07
2023-11-11T21:54:06.879Z,5.03
2023-11-11T21:56:33.511Z,6.40
2023-11-11T21:59:00.000Z,6.05
2023-11-11T22:01:26.764Z,4.40
2023-11-11T22:03:53.602Z,4.38
2023-11-11T22:06:20.048Z,4.10
2023-11-11T22:08:46.834Z,4.70
2023-11-11T22:11:13.393Z,4.68
2023-11-11T22:13:40.242Z,4.55
2023-11-11T22:16:10.002Z,5.13
2023-11-11T22:18:37.466Z,6.60
2023-11-11T22:21:05.459Z,4.93
2023-11-11T22:23:32.159Z,5.13
2023-11-11T22:26:00.676Z,4.85
2023-11-11T22:28:27.227Z,4.05
2023-11-11T22:30:53.797Z,5.43
2023-11-11T22:33:20.408Z,3.50
2023-11-11T22:35:47.183Z,6.43
2023-11-11T22:38:13.724Z,5.00
2023-11-11T22:40:40.179Z,2.95
2023-11-11T22:43:06.605Z,4.32
2023-11-11T22:45:33.484Z,7.78
2023-11-11T22:47:59.930Z,4.53
2023-11-11T22:50:28.490Z,4.57
2023-11-11T22:52:55.085Z,3.78
2023-11-11T22:55:21.736Z,4.80
2023-11-11T22:57:49.333Z,7.18
2023-11-11T23:00:17.269Z,6.53
2023-11-11T23:02:43.834Z,4.55
2023-11-11T23:05:12.744Z,4.30
2023-11-11T23:07:39.255Z,5.82
2023-11-11T23:10:06.370Z,4.40
2023-11-11T23:12:32.801Z,5.43
2023-11-11T23:14:59.277Z,5.20
2023-11-11T23:17:25.839Z,8.90
2023-11-11T23:19:52.388Z,6.95
2023-11-11T23:22:18.933Z,4.38
2023-11-11T23:24:45.295Z,4.35
2023-11-11T23:27:12.014Z,4.57
2023-11-11T23:29:40.253Z,3.97
2023-11-11T23:32:07.504Z,4.47
2023-11-11T23:34:35.359Z,6.60
2023-11-11T23:37:02.054Z,6.60
2023-11-11T23:39:28.430Z,3.35
2023-11-11T23:41:55.326Z,4.32
2023-11-11T23:44:23.780Z,7.13
2023-11-11T23:46:50.311Z,7.97
2023-11-11T23:49:16.863Z,6.50
2023-11-11T23:51:49.981Z,6.68
2023-11-11T23:54:16.809Z,6.63
2023-11-11T23:56:43.471Z,5.00
2023-11-11T23:59:11.467Z,5.70
